Clutier, Iowa
Current Conditions -  °F | °C
As of 10:15 PM on Wednesday 17 Dec 2014 (Local Time) from KVTI Reporting Station
Clear Clear  
Wind Chill: -9°   Ceiling: Unl
Heat Index: -9°   Visibility: 10mi
Dew Point: -11°   Wind: 3mph
Humidity: 88%   Direction: 350°N
Pressure: 30.32"   Gusts: NA
Location:  42.08°N, 92.4°W
Report Text: KVTI 180415Z AUTO 35003KT 10SM CLR M09/M11 A3032 RMK AO2 T10901107
Loading
Personal Weather Stations






























Interactive Weather Map New forecast layout! Learn more

10-Day Weather Forecast

Advertisements
Track Severe Weather on mobile